createdAt,value
2023-10-06T00:00:21.825Z,5.20
2023-10-06T00:04:13.771Z,4.50
2023-10-06T00:07:48.273Z,4.60
2023-10-06T00:11:12.250Z,4.30
2023-10-06T00:14:41.439Z,5.90
2023-10-06T00:17:49.950Z,5.00
2023-10-06T00:21:08.858Z,4.10
2023-10-06T00:24:17.845Z,5.40
2023-10-06T00:27:22.328Z,5.50
2023-10-06T00:30:23.111Z,5.30
2023-10-06T00:33:19.745Z,5.70
2023-10-06T00:36:45.496Z,5.30
2023-10-06T00:39:54.358Z,5.10
2023-10-06T00:43:02.565Z,3.60
2023-10-06T00:46:30.976Z,5.10
2023-10-06T00:49:24.564Z,5.70
2023-10-06T00:52:34.395Z,6.00
2023-10-06T00:55:45.613Z,5.60
2023-10-06T00:58:57.531Z,4.50
2023-10-06T01:02:16.908Z,4.70
2023-10-06T01:05:18.512Z,5.40
2023-10-06T01:08:22.363Z,5.00
2023-10-06T01:11:33.291Z,5.50
2023-10-06T01:15:10.202Z,4.80
2023-10-06T01:18:29.647Z,4.70
2023-10-06T01:21:19.253Z,4.60
2023-10-06T01:24:28.474Z,4.10
2023-10-06T01:27:24.033Z,4.40
2023-10-06T01:30:44.198Z,5.80
2023-10-06T01:34:07.645Z,5.00
2023-10-06T01:38:07.820Z,5.20
2023-10-06T01:45:50.459Z,4.80
2023-10-06T01:49:14.603Z,3.70
2023-10-06T01:53:50.817Z,5.50
2023-10-06T02:02:22.718Z,6.10
2023-10-06T02:21:27.370Z,4.70
2023-10-06T02:25:07.562Z,2.10
2023-10-06T02:28:39.989Z,2.70
2023-10-06T02:32:18.424Z,3.80
2023-10-06T02:35:55.457Z,4.10
2023-10-06T02:39:37.451Z,5.50
2023-10-06T02:43:37.421Z,5.80
2023-10-06T02:47:08.636Z,4.50
2023-10-06T02:50:42.496Z,5.80
2023-10-06T02:54:21.463Z,5.10
2023-10-06T03:01:42.495Z,4.50
2023-10-06T03:05:05.510Z,5.40
2023-10-06T03:09:30.372Z,3.80
2023-10-06T03:16:28.486Z,5.30
2023-10-06T03:20:31.503Z,5.00
2023-10-06T03:31:47.769Z,5.10
2023-10-06T03:35:38.569Z,5.60
2023-10-06T03:42:55.450Z,5.20
2023-10-06T03:46:05.999Z,4.80
2023-10-06T03:49:28.375Z,6.60
2023-10-06T03:53:27.746Z,4.90
2023-10-06T03:57:24.129Z,4.50
2023-10-06T04:09:50.555Z,5.20
2023-10-06T04:12:55.583Z,5.70
2023-10-06T04:15:59.436Z,4.80
2023-10-06T04:19:15.121Z,5.70
2023-10-06T04:22:41.960Z,5.80
2023-10-06T04:25:47.250Z,5.80
2023-10-06T04:28:51.321Z,4.20
2023-10-06T04:32:04.153Z,5.60
2023-10-06T04:35:05.541Z,3.80
2023-10-06T04:38:34.960Z,5.60
2023-10-06T04:41:47.460Z,7.00
2023-10-06T04:44:46.685Z,5.40
2023-10-06T04:48:35.539Z,5.90
2023-10-06T04:51:44.075Z,5.40
2023-10-06T04:54:54.078Z,5.30
2023-10-06T04:58:04.184Z,5.80
2023-10-06T05:01:09.982Z,4.40
2023-10-06T05:04:59.752Z,6.30
2023-10-06T05:11:39.317Z,6.10
2023-10-06T05:14:40.213Z,5.10
2023-10-06T05:17:38.577Z,5.40
2023-10-06T05:20:57.609Z,5.70
2023-10-06T05:24:11.839Z,6.60
2023-10-06T05:27:18.313Z,5.20
2023-10-06T05:31:04.536Z,6.20
2023-10-06T05:35:22.296Z,6.30
2023-10-06T05:38:54.992Z,6.60
2023-10-06T05:42:35.031Z,6.90
2023-10-06T05:46:03.434Z,6.00
2023-10-06T05:49:49.864Z,6.10
2023-10-06T05:53:29.438Z,7.50
2023-10-06T05:57:00.357Z,5.70
2023-10-06T06:00:26.534Z,4.70
2023-10-06T06:04:14.812Z,7.40
2023-10-06T06:08:10.335Z,4.80
2023-10-06T06:11:51.376Z,5.50
2023-10-06T06:14:34.949Z,5.80
2023-10-06T06:18:01.628Z,5.70
2023-10-06T06:21:35.098Z,6.10
2023-10-06T06:24:55.215Z,3.80
2023-10-06T06:27:58.264Z,6.30
2023-10-06T06:30:51.525Z,5.50
2023-10-06T06:34:01.284Z,6.10
2023-10-06T06:37:14.486Z,6.00
2023-10-06T06:40:21.146Z,7.50
2023-10-06T06:43:47.387Z,7.10
2023-10-06T06:46:52.968Z,5.30
2023-10-06T06:49:49.199Z,4.80
2023-10-06T06:52:40.282Z,6.20
2023-10-06T06:55:14.828Z,6.00
2023-10-06T06:58:10.264Z,7.30
2023-10-06T07:01:05.847Z,7.10
2023-10-06T07:04:22.395Z,6.70
2023-10-06T07:07:05.990Z,6.90
2023-10-06T07:10:01.742Z,4.80
2023-10-06T07:13:25.265Z,5.80
2023-10-06T07:16:02.346Z,6.80
2023-10-06T07:19:00.444Z,7.50
2023-10-06T07:21:35.520Z,6.30
2023-10-06T07:24:21.233Z,5.60
2023-10-06T07:27:07.923Z,5.80
2023-10-06T07:29:54.055Z,5.10
2023-10-06T07:32:33.653Z,5.40
2023-10-06T07:35:56.316Z,5.30
2023-10-06T07:39:30.531Z,4.00
2023-10-06T07:47:14.330Z,4.00
2023-10-06T07:50:20.090Z,3.50
2023-10-06T07:52:54.052Z,2.70
2023-10-06T07:55:31.471Z,3.50
2023-10-06T07:58:16.917Z,3.40
2023-10-06T08:01:04.246Z,3.40
2023-10-06T08:03:56.301Z,3.30
2023-10-06T08:09:07.039Z,4.10
2023-10-06T08:11:51.765Z,4.40
2023-10-06T08:14:44.016Z,7.60
2023-10-06T08:17:33.247Z,4.90
2023-10-06T08:20:34.012Z,3.90
2023-10-06T08:23:17.012Z,3.30
2023-10-06T08:26:19.029Z,3.90
2023-10-06T08:29:00.178Z,3.80
2023-10-06T08:34:53.603Z,2.80
2023-10-06T08:37:38.184Z,4.00
2023-10-06T08:40:09.419Z,4.50
2023-10-06T08:42:42.278Z,3.40
2023-10-06T08:45:27.393Z,3.60
2023-10-06T08:48:04.019Z,3.20
2023-10-06T08:50:34.514Z,3.20
2023-10-06T08:53:14.654Z,3.60
2023-10-06T08:55:46.353Z,3.80
2023-10-06T08:58:27.625Z,3.40
2023-10-06T09:00:57.360Z,3.70
2023-10-06T09:03:35.246Z,4.10
2023-10-06T09:06:21.875Z,4.00
2023-10-06T09:09:31.425Z,3.70
2023-10-06T09:12:28.913Z,4.10
2023-10-06T09:15:56.066Z,4.40
2023-10-06T09:18:30.245Z,3.60
2023-10-06T09:21:39.033Z,4.70
2023-10-06T09:24:30.716Z,4.60
2023-10-06T09:27:29.902Z,3.50
2023-10-06T09:30:14.825Z,3.40
2023-10-06T09:33:42.802Z,4.50
2023-10-06T09:36:36.473Z,4.30
2023-10-06T09:39:39.987Z,4.60
2023-10-06T09:42:42.909Z,3.90
2023-10-06T09:45:34.651Z,4.20
2023-10-06T09:48:35.410Z,3.50
2023-10-06T09:51:15.560Z,5.20
2023-10-06T09:54:29.134Z,3.20
2023-10-06T09:57:18.563Z,4.00
2023-10-06T09:59:54.018Z,3.80
2023-10-06T10:06:02.275Z,4.30
2023-10-06T10:11:40.917Z,4.20
2023-10-06T10:15:01.197Z,4.40
2023-10-06T10:18:23.096Z,3.80
2023-10-06T10:21:31.076Z,3.50
2023-10-06T10:27:49.272Z,3.40
2023-10-06T10:31:42.132Z,3.70
2023-10-06T10:35:14.407Z,4.60
2023-10-06T10:38:06.310Z,4.20
2023-10-06T10:41:19.454Z,3.70
2023-10-06T10:44:25.301Z,3.10
2023-10-06T10:47:38.690Z,3.50
2023-10-06T10:51:24.768Z,3.50
2023-10-06T10:54:30.223Z,3.90
2023-10-06T10:57:23.077Z,3.20
2023-10-06T11:00:28.570Z,3.80
2023-10-06T11:03:27.113Z,4.10
2023-10-06T11:06:32.515Z,4.20
2023-10-06T11:09:42.913Z,4.40
2023-10-06T11:12:46.438Z,3.30
2023-10-06T11:15:35.161Z,4.60
2023-10-06T11:18:45.264Z,4.60
2023-10-06T11:22:03.966Z,4.10
2023-10-06T11:25:14.224Z,4.40
2023-10-06T11:28:06.002Z,4.30
2023-10-06T11:30:51.171Z,4.40
2023-10-06T11:33:33.630Z,4.90
2023-10-06T11:36:03.337Z,3.90
2023-10-06T11:38:42.171Z,3.80
2023-10-06T11:41:25.558Z,4.40
2023-10-06T11:44:16.862Z,4.60
2023-10-06T11:47:13.398Z,4.60
2023-10-06T11:50:01.932Z,4.20
2023-10-06T11:53:25.978Z,4.90
2023-10-06T11:56:16.841Z,4.20
2023-10-06T11:58:49.412Z,4.50
2023-10-06T12:01:38.559Z,4.50
2023-10-06T12:04:24.706Z,4.90
2023-10-06T12:07:10.666Z,4.20
2023-10-06T12:09:43.040Z,4.20
2023-10-06T12:12:26.828Z,5.00
2023-10-06T12:15:05.540Z,3.20
2023-10-06T12:17:39.971Z,3.70
2023-10-06T12:20:36.947Z,4.00
2023-10-06T12:23:11.964Z,3.80
2023-10-06T12:25:40.923Z,3.80
2023-10-06T12:28:15.309Z,3.40
2023-10-06T12:30:59.034Z,3.60
2023-10-06T12:33:45.037Z,3.70
2023-10-06T12:36:20.616Z,3.00
2023-10-06T12:38:49.600Z,3.00
2023-10-06T12:41:19.271Z,2.80
2023-10-06T12:43:49.319Z,3.60
2023-10-06T12:46:28.079Z,3.40
2023-10-06T12:49:22.788Z,3.20
2023-10-06T12:51:54.460Z,3.80
2023-10-06T12:57:08.086Z,4.30
2023-10-06T12:59:50.644Z,4.00
2023-10-06T13:02:36.743Z,4.10
2023-10-06T13:08:23.088Z,3.50
2023-10-06T13:11:03.726Z,6.00
2023-10-06T13:13:40.963Z,4.10
2023-10-06T13:16:13.399Z,3.50
2023-10-06T13:18:55.436Z,3.90
2023-10-06T13:21:26.796Z,4.20
2023-10-06T13:24:01.384Z,3.80
2023-10-06T13:26:44.362Z,3.90
2023-10-06T13:29:28.081Z,3.30
2023-10-06T13:31:57.126Z,3.70
2023-10-06T13:34:31.664Z,3.20
2023-10-06T13:37:03.558Z,3.30
2023-10-06T13:39:35.513Z,3.60
2023-10-06T13:42:16.833Z,3.60
2023-10-06T13:44:57.450Z,3.90
2023-10-06T13:47:27.266Z,3.40
2023-10-06T13:50:05.197Z,3.50
2023-10-06T13:52:54.178Z,3.70
2023-10-06T13:55:49.036Z,3.70
2023-10-06T13:59:05.796Z,5.10
2023-10-06T14:06:45.839Z,4.00
2023-10-06T14:09:44.286Z,4.30
2023-10-06T14:12:21.798Z,3.30
2023-10-06T14:15:31.860Z,3.20
2023-10-06T14:18:06.552Z,3.40
2023-10-06T14:20:50.710Z,3.10
2023-10-06T14:23:37.501Z,3.00
2023-10-06T14:26:15.627Z,3.20
2023-10-06T14:28:50.493Z,3.20
2023-10-06T14:31:35.928Z,3.50
2023-10-06T14:34:42.568Z,3.70
2023-10-06T14:38:07.445Z,3.10
2023-10-06T14:41:45.381Z,4.80
2023-10-06T14:44:37.688Z,4.00
2023-10-06T14:51:23.324Z,2.70
2023-10-06T14:54:32.424Z,3.90
2023-10-06T14:58:04.104Z,3.30
2023-10-06T15:01:45.498Z,3.10
2023-10-06T15:05:15.381Z,3.20
2023-10-06T15:08:57.542Z,3.00
2023-10-06T15:12:06.557Z,3.10
2023-10-06T15:15:29.099Z,2.70
2023-10-06T15:19:07.470Z,3.20
2023-10-06T15:22:28.074Z,2.50
2023-10-06T15:26:00.587Z,2.60
2023-10-06T15:29:16.209Z,3.60
2023-10-06T15:37:52.900Z,3.00
2023-10-06T15:40:50.972Z,3.00
2023-10-06T15:43:56.317Z,4.00
2023-10-06T15:47:22.448Z,3.00
2023-10-06T15:50:36.656Z,2.50
2023-10-06T15:53:37.919Z,3.40
2023-10-06T15:56:57.464Z,3.40
2023-10-06T16:00:27.731Z,2.70
2023-10-06T16:03:35.620Z,3.30
2023-10-06T16:07:09.120Z,3.30
2023-10-06T16:13:34.778Z,3.50
2023-10-06T16:17:01.101Z,4.60
2023-10-06T16:20:30.472Z,3.90
2023-10-06T16:24:05.059Z,4.20
2023-10-06T16:27:25.793Z,3.40
2023-10-06T16:30:19.717Z,4.70
2023-10-06T16:33:19.624Z,4.80
2023-10-06T16:36:53.918Z,5.20
2023-10-06T16:40:21.804Z,5.10
2023-10-06T16:46:53.886Z,3.90
2023-10-06T16:50:26.379Z,5.00
2023-10-06T16:53:35.952Z,4.10
2023-10-06T17:00:25.678Z,3.40
2023-10-06T17:03:51.716Z,4.50
2023-10-06T17:07:40.129Z,3.60
2023-10-06T17:14:12.274Z,3.80
2023-10-06T17:17:28.477Z,4.60
2023-10-06T17:20:13.240Z,4.60
2023-10-06T17:23:35.450Z,4.60
2023-10-06T17:27:19.194Z,4.60
2023-10-06T17:30:41.842Z,5.30
2023-10-06T17:34:36.257Z,5.70
2023-10-06T17:37:57.855Z,5.00
2023-10-06T17:41:19.365Z,4.70
2023-10-06T17:44:32.017Z,6.30
2023-10-06T17:48:05.757Z,6.10
2023-10-06T17:59:46.565Z,5.70
2023-10-06T18:03:14.346Z,6.60
2023-10-06T18:05:57.333Z,6.20
2023-10-06T18:09:14.134Z,8.40
2023-10-06T18:12:54.906Z,7.80
2023-10-06T18:16:44.304Z,9.00
2023-10-06T18:20:32.988Z,7.80
2023-10-06T18:23:48.608Z,8.40
2023-10-06T18:27:22.102Z,7.60
2023-10-06T18:31:10.459Z,8.90
2023-10-06T18:35:02.555Z,7.70
2023-10-06T18:38:43.846Z,7.70
2023-10-06T18:42:18.601Z,8.40
2023-10-06T18:45:35.477Z,8.50
2023-10-06T18:48:57.007Z,9.60
2023-10-06T18:52:18.306Z,8.80
2023-10-06T18:55:23.563Z,7.30
2023-10-06T18:59:04.708Z,8.40
2023-10-06T19:02:11.820Z,7.50
2023-10-06T19:05:26.796Z,8.00
2023-10-06T19:08:32.793Z,7.40
2023-10-06T19:12:21.013Z,7.80
2023-10-06T19:15:54.089Z,8.20
2023-10-06T19:19:19.169Z,7.50
2023-10-06T19:22:50.101Z,7.50
2023-10-06T19:26:32.227Z,6.80
2023-10-06T19:30:30.214Z,7.60
2023-10-06T19:34:09.726Z,7.80
2023-10-06T19:37:59.278Z,6.90
2023-10-06T19:41:34.385Z,7.90
2023-10-06T19:44:54.950Z,6.60
2023-10-06T19:48:28.312Z,4.70
2023-10-06T19:51:56.690Z,3.80
2023-10-06T19:55:25.731Z,4.20
2023-10-06T19:58:52.779Z,4.40
2023-10-06T20:02:14.728Z,3.30
2023-10-06T20:05:32.068Z,2.80
2023-10-06T20:08:56.699Z,2.90
2023-10-06T20:12:32.258Z,3.50
2023-10-06T20:15:53.302Z,3.20
2023-10-06T20:19:28.280Z,3.10
2023-10-06T20:22:53.483Z,2.60
2023-10-06T20:26:02.561Z,3.70
2023-10-06T20:29:19.079Z,3.20
2023-10-06T20:32:10.231Z,3.50
2023-10-06T20:39:24.266Z,3.50
2023-10-06T20:43:09.461Z,3.50
2023-10-06T20:46:46.121Z,4.00
2023-10-06T20:50:18.129Z,3.80
2023-10-06T20:53:59.013Z,3.00
2023-10-06T20:57:33.836Z,3.50
2023-10-06T21:01:22.228Z,3.10
2023-10-06T21:05:03.204Z,3.40
2023-10-06T21:08:31.179Z,4.20
2023-10-06T21:11:49.734Z,4.10
2023-10-06T21:15:00.910Z,3.70
2023-10-06T21:18:11.813Z,4.00
2023-10-06T21:21:32.140Z,4.90
2023-10-06T21:24:49.782Z,3.70
2023-10-06T21:32:50.837Z,4.30
2023-10-06T21:40:11.425Z,4.20
2023-10-06T21:43:54.073Z,3.30
2023-10-06T21:47:24.759Z,4.00
2023-10-06T21:51:22.879Z,3.40
2023-10-06T21:54:44.353Z,3.40
2023-10-06T21:58:33.842Z,3.60
2023-10-06T22:02:14.751Z,4.80
2023-10-06T22:05:55.520Z,3.80
2023-10-06T22:09:30.253Z,4.20
2023-10-06T22:13:19.683Z,3.80
2023-10-06T22:17:19.983Z,4.00
2023-10-06T22:21:10.108Z,4.00
2023-10-06T22:24:32.541Z,2.80
2023-10-06T22:28:07.974Z,3.00
2023-10-06T22:31:50.545Z,2.10
2023-10-06T22:35:31.716Z,3.70
2023-10-06T22:39:14.663Z,2.60
2023-10-06T22:42:49.222Z,3.50
2023-10-06T22:46:24.220Z,4.10
2023-10-06T22:50:05.846Z,4.30
2023-10-06T22:53:39.686Z,3.70
2023-10-06T22:57:21.831Z,3.90
2023-10-06T23:01:01.602Z,3.30
2023-10-06T23:04:42.511Z,3.60
2023-10-06T23:08:27.617Z,3.60
2023-10-06T23:12:02.682Z,3.70
2023-10-06T23:15:53.005Z,3.40
2023-10-06T23:19:07.163Z,3.40
2023-10-06T23:22:49.320Z,3.20
2023-10-06T23:27:02.763Z,2.90
2023-10-06T23:30:59.477Z,2.90
2023-10-06T23:34:39.241Z,2.00
2023-10-06T23:38:29.321Z,2.40
2023-10-06T23:41:32.759Z,4.90
2023-10-06T23:44:53.637Z,3.80
2023-10-06T23:48:20.874Z,3.10
2023-10-06T23:51:24.505Z,3.50
2023-10-06T23:55:21.339Z,3.80
2023-10-06T23:58:38.834Z,4.50
